sensor_id;sensor_type;location;lat;lon;timestamp;temperature;humidity
12413;DHT22;13877;18.896;-99.222;2024-01-11T00:02:13;23.60;1.00
12413;DHT22;13877;18.896;-99.222;2024-01-11T00:04:40;23.40;1.00
12413;DHT22;13877;18.896;-99.222;2024-01-11T00:07:32;23.30;1.00
12413;DHT22;13877;18.896;-99.222;2024-01-11T00:10:27;23.20;1.00
12413;DHT22;13877;18.896;-99.222;2024-01-11T00:13:19;23.10;1.00
12413;DHT22;13877;18.896;-99.222;2024-01-11T00:16:11;23.00;1.00
12413;DHT22;13877;18.896;-99.222;2024-01-11T00:19:04;22.90;1.00
12413;DHT22;13877;18.896;-99.222;2024-01-11T00:21:56;22.80;1.00
12413;DHT22;13877;18.896;-99.222;2024-01-11T00:24:48;22.70;1.00
12413;DHT22;13877;18.896;-99.222;2024-01-11T00:27:41;22.60;1.00
12413;DHT22;13877;18.896;-99.222;2024-01-11T00:30:32;22.50;1.00
12413;DHT22;13877;18.896;-99.222;2024-01-11T00:33:26;22.30;1.00
12413;DHT22;13877;18.896;-99.222;2024-01-11T00:36:18;22.20;1.00
12413;DHT22;13877;18.896;-99.222;2024-01-11T00:39:12;22.20;1.00
12413;DHT22;13877;18.896;-99.222;2024-01-11T00:42:04;22.10;1.00
12413;DHT22;13877;18.896;-99.222;2024-01-11T00:44:57;21.90;1.00
12413;DHT22;13877;18.896;-99.222;2024-01-11T00:47:49;22.10;1.00
12413;DHT22;13877;18.896;-99.222;2024-01-11T00:50:42;21.90;1.00
12413;DHT22;13877;18.896;-99.222;2024-01-11T00:53:34;21.80;1.00
12413;DHT22;13877;18.896;-99.222;2024-01-11T00:56:26;21.70;1.00
12413;DHT22;13877;18.896;-99.222;2024-01-11T00:59:18;21.60;1.00
12413;DHT22;13877;18.896;-99.222;2024-01-11T01:02:10;21.50;1.00
12413;DHT22;13877;18.896;-99.222;2024-01-11T01:05:03;21.50;1.00
12413;DHT22;13877;18.896;-99.222;2024-01-11T01:07:54;21.40;1.00
12413;DHT22;13877;18.896;-99.222;2024-01-11T01:10:48;21.20;1.00
12413;DHT22;13877;18.896;-99.222;2024-01-11T01:13:41;21.00;1.00
12413;DHT22;13877;18.896;-99.222;2024-01-11T01:16:34;20.70;1.00
12413;DHT22;13877;18.896;-99.222;2024-01-11T01:19:26;20.70;1.00
12413;DHT22;13877;18.896;-99.222;2024-01-11T01:22:17;20.60;1.00
12413;DHT22;13877;18.896;-99.222;2024-01-11T01:25:09;20.50;1.00
12413;DHT22;13877;18.896;-99.222;2024-01-11T01:28:02;20.80;1.00
12413;DHT22;13877;18.896;-99.222;2024-01-11T01:30:54;20.80;1.00
12413;DHT22;13877;18.896;-99.222;2024-01-11T01:33:45;20.50;1.00
12413;DHT22;13877;18.896;-99.222;2024-01-11T01:36:37;20.30;1.00
12413;DHT22;13877;18.896;-99.222;2024-01-11T01:39:29;20.00;1.00
12413;DHT22;13877;18.896;-99.222;2024-01-11T01:42:21;19.90;1.00
12413;DHT22;13877;18.896;-99.222;2024-01-11T01:45:16;19.80;1.00
12413;DHT22;13877;18.896;-99.222;2024-01-11T01:48:08;19.60;1.00
12413;DHT22;13877;18.896;-99.222;2024-01-11T01:51:01;19.00;1.00
12413;DHT22;13877;18.896;-99.222;2024-01-11T01:53:53;19.10;1.00
12413;DHT22;13877;18.896;-99.222;2024-01-11T02:58:31;16.90;1.00
12413;DHT22;13877;18.896;-99.222;2024-01-11T03:01:00;16.70;1.00
12413;DHT22;13877;18.896;-99.222;2024-01-11T03:03:27;16.70;1.00
12413;DHT22;13877;18.896;-99.222;2024-01-11T03:05:55;16.70;1.00
12413;DHT22;13877;18.896;-99.222;2024-01-11T03:08:22;17.00;1.00
12413;DHT22;13877;18.896;-99.222;2024-01-11T03:10:49;17.10;1.00
12413;DHT22;13877;18.896;-99.222;2024-01-11T03:13:16;16.90;1.00
12413;DHT22;13877;18.896;-99.222;2024-01-11T03:15:45;16.70;1.00
12413;DHT22;13877;18.896;-99.222;2024-01-11T03:18:12;16.80;1.00
12413;DHT22;13877;18.896;-99.222;2024-01-11T03:20:39;16.90;1.00
12413;DHT22;13877;18.896;-99.222;2024-01-11T03:23:06;16.60;1.00
12413;DHT22;13877;18.896;-99.222;2024-01-11T03:25:34;16.90;1.00
12413;DHT22;13877;18.896;-99.222;2024-01-11T03:28:01;16.70;1.00
12413;DHT22;13877;18.896;-99.222;2024-01-11T03:30:29;16.80;1.00
12413;DHT22;13877;18.896;-99.222;2024-01-11T03:32:57;16.60;1.00
12413;DHT22;13877;18.896;-99.222;2024-01-11T03:35:24;16.50;1.00
12413;DHT22;13877;18.896;-99.222;2024-01-11T03:37:51;16.30;1.00
12413;DHT22;13877;18.896;-99.222;2024-01-11T03:40:19;16.30;1.00
12413;DHT22;13877;18.896;-99.222;2024-01-11T03:42:46;16.30;1.00
12413;DHT22;13877;18.896;-99.222;2024-01-11T03:45:17;16.40;1.00
12413;DHT22;13877;18.896;-99.222;2024-01-11T03:47:44;16.60;1.00
12413;DHT22;13877;18.896;-99.222;2024-01-11T03:50:12;16.80;1.00
12413;DHT22;13877;18.896;-99.222;2024-01-11T03:52:40;16.80;1.00
12413;DHT22;13877;18.896;-99.222;2024-01-11T03:55:07;16.80;1.00
12413;DHT22;13877;18.896;-99.222;2024-01-11T03:57:34;16.70;1.00
12413;DHT22;13877;18.896;-99.222;2024-01-11T04:00:01;16.70;1.00
12413;DHT22;13877;18.896;-99.222;2024-01-11T04:02:30;16.70;1.00
12413;DHT22;13877;18.896;-99.222;2024-01-11T04:04:58;16.70;1.00
12413;DHT22;13877;18.896;-99.222;2024-01-11T04:07:27;16.90;1.00
12413;DHT22;13877;18.896;-99.222;2024-01-11T04:09:54;17.00;1.00
12413;DHT22;13877;18.896;-99.222;2024-01-11T04:12:22;17.00;1.00
12413;DHT22;13877;18.896;-99.222;2024-01-11T04:14:50;16.90;1.00
12413;DHT22;13877;18.896;-99.222;2024-01-11T04:17:18;16.90;1.00
12413;DHT22;13877;18.896;-99.222;2024-01-11T04:19:45;16.90;1.00
12413;DHT22;13877;18.896;-99.222;2024-01-11T04:22:12;16.50;1.00
12413;DHT22;13877;18.896;-99.222;2024-01-11T04:24:42;16.10;1.00
12413;DHT22;13877;18.896;-99.222;2024-01-11T04:27:10;16.00;1.00
12413;DHT22;13877;18.896;-99.222;2024-01-11T04:29:37;16.00;1.00
12413;DHT22;13877;18.896;-99.222;2024-01-11T04:32:04;15.90;1.00
12413;DHT22;13877;18.896;-99.222;2024-01-11T04:34:32;15.90;1.00
12413;DHT22;13877;18.896;-99.222;2024-01-11T04:36:59;16.00;1.00
12413;DHT22;13877;18.896;-99.222;2024-01-11T04:39:26;16.10;1.00
12413;DHT22;13877;18.896;-99.222;2024-01-11T04:41:54;16.30;1.00
12413;DHT22;13877;18.896;-99.222;2024-01-11T04:44:21;16.20;1.00
12413;DHT22;13877;18.896;-99.222;2024-01-11T04:46:48;15.90;1.00
12413;DHT22;13877;18.896;-99.222;2024-01-11T04:49:15;16.00;1.00
12413;DHT22;13877;18.896;-99.222;2024-01-11T04:51:43;15.80;1.00
12413;DHT22;13877;18.896;-99.222;2024-01-11T04:54:10;15.70;1.00
12413;DHT22;13877;18.896;-99.222;2024-01-11T04:56:37;16.00;1.00
12413;DHT22;13877;18.896;-99.222;2024-01-11T04:59:05;16.20;1.00
12413;DHT22;13877;18.896;-99.222;2024-01-11T05:01:33;16.30;1.00
12413;DHT22;13877;18.896;-99.222;2024-01-11T05:04:00;16.50;1.00
12413;DHT22;13877;18.896;-99.222;2024-01-11T05:06:27;16.40;1.00
12413;DHT22;13877;18.896;-99.222;2024-01-11T05:08:55;16.30;1.00
12413;DHT22;13877;18.896;-99.222;2024-01-11T05:11:23;16.20;1.00
12413;DHT22;13877;18.896;-99.222;2024-01-11T05:13:53;16.20;1.00
12413;DHT22;13877;18.896;-99.222;2024-01-11T05:16:25;16.20;1.00
12413;DHT22;13877;18.896;-99.222;2024-01-11T05:18:54;16.20;1.00
12413;DHT22;13877;18.896;-99.222;2024-01-11T05:21:22;16.20;1.00
12413;DHT22;13877;18.896;-99.222;2024-01-11T05:23:51;16.30;1.00
12413;DHT22;13877;18.896;-99.222;2024-01-11T05:26:19;16.30;1.00
12413;DHT22;13877;18.896;-99.222;2024-01-11T05:28:47;16.30;1.00
12413;DHT22;13877;18.896;-99.222;2024-01-11T05:31:14;16.40;1.00
12413;DHT22;13877;18.896;-99.222;2024-01-11T05:33:42;16.50;1.00
12413;DHT22;13877;18.896;-99.222;2024-01-11T05:36:10;16.50;1.00
12413;DHT22;13877;18.896;-99.222;2024-01-11T05:38:39;16.50;1.00
12413;DHT22;13877;18.896;-99.222;2024-01-11T05:41:09;16.60;1.00
12413;DHT22;13877;18.896;-99.222;2024-01-11T05:43:38;16.50;1.00
12413;DHT22;13877;18.896;-99.222;2024-01-11T05:46:09;16.40;1.00
12413;DHT22;13877;18.896;-99.222;2024-01-11T05:48:43;16.50;1.00
12413;DHT22;13877;18.896;-99.222;2024-01-11T05:51:10;16.30;1.00
12413;DHT22;13877;18.896;-99.222;2024-01-11T05:53:38;16.30;1.00
12413;DHT22;13877;18.896;-99.222;2024-01-11T05:56:11;16.40;1.00
12413;DHT22;13877;18.896;-99.222;2024-01-11T05:58:39;16.40;1.00
12413;DHT22;13877;18.896;-99.222;2024-01-11T06:01:09;16.30;1.00
12413;DHT22;13877;18.896;-99.222;2024-01-11T06:03:36;16.30;1.00
12413;DHT22;13877;18.896;-99.222;2024-01-11T06:06:05;16.20;1.00
12413;DHT22;13877;18.896;-99.222;2024-01-11T06:08:33;16.30;1.00
12413;DHT22;13877;18.896;-99.222;2024-01-11T06:11:00;16.40;1.00
12413;DHT22;13877;18.896;-99.222;2024-01-11T06:13:27;16.40;1.00
12413;DHT22;13877;18.896;-99.222;2024-01-11T06:15:55;16.40;1.00
12413;DHT22;13877;18.896;-99.222;2024-01-11T06:18:23;16.30;1.00
12413;DHT22;13877;18.896;-99.222;2024-01-11T06:20:50;16.50;1.00
12413;DHT22;13877;18.896;-99.222;2024-01-11T06:23:17;16.60;1.00
12413;DHT22;13877;18.896;-99.222;2024-01-11T06:25:47;16.50;1.00
12413;DHT22;13877;18.896;-99.222;2024-01-11T06:28:14;16.60;1.00
12413;DHT22;13877;18.896;-99.222;2024-01-11T06:30:44;16.60;1.00
12413;DHT22;13877;18.896;-99.222;2024-01-11T06:33:11;16.50;1.00
12413;DHT22;13877;18.896;-99.222;2024-01-11T06:35:38;16.40;1.00
12413;DHT22;13877;18.896;-99.222;2024-01-11T06:38:06;16.40;1.00
12413;DHT22;13877;18.896;-99.222;2024-01-11T06:40:36;16.60;1.00
12413;DHT22;13877;18.896;-99.222;2024-01-11T06:43:04;16.60;1.00
12413;DHT22;13877;18.896;-99.222;2024-01-11T06:45:31;16.60;1.00
12413;DHT22;13877;18.896;-99.222;2024-01-11T06:47:58;16.70;1.00
12413;DHT22;13877;18.896;-99.222;2024-01-11T06:50:25;16.60;1.00
12413;DHT22;13877;18.896;-99.222;2024-01-11T06:52:53;16.60;1.00
12413;DHT22;13877;18.896;-99.222;2024-01-11T06:55:20;16.60;1.00
12413;DHT22;13877;18.896;-99.222;2024-01-11T06:57:48;16.50;1.00
12413;DHT22;13877;18.896;-99.222;2024-01-11T07:00:15;16.50;1.00
12413;DHT22;13877;18.896;-99.222;2024-01-11T07:02:42;16.50;1.00
12413;DHT22;13877;18.896;-99.222;2024-01-11T07:05:09;16.40;1.00
12413;DHT22;13877;18.896;-99.222;2024-01-11T07:07:36;16.40;1.00
12413;DHT22;13877;18.896;-99.222;2024-01-11T07:10:04;16.30;1.00
12413;DHT22;13877;18.896;-99.222;2024-01-11T07:12:32;16.30;1.00
12413;DHT22;13877;18.896;-99.222;2024-01-11T07:14:59;16.20;1.00
12413;DHT22;13877;18.896;-99.222;2024-01-11T07:17:27;16.30;1.00
12413;DHT22;13877;18.896;-99.222;2024-01-11T07:19:54;16.30;1.00
12413;DHT22;13877;18.896;-99.222;2024-01-11T07:22:21;16.30;1.00
12413;DHT22;13877;18.896;-99.222;2024-01-11T07:24:48;16.30;1.00
12413;DHT22;13877;18.896;-99.222;2024-01-11T07:27:15;16.30;1.00
12413;DHT22;13877;18.896;-99.222;2024-01-11T07:29:42;16.30;1.00
12413;DHT22;13877;18.896;-99.222;2024-01-11T07:32:10;16.30;1.00
12413;DHT22;13877;18.896;-99.222;2024-01-11T07:34:37;16.30;1.00
12413;DHT22;13877;18.896;-99.222;2024-01-11T07:37:04;16.20;1.00
12413;DHT22;13877;18.896;-99.222;2024-01-11T07:39:31;16.10;1.00
12413;DHT22;13877;18.896;-99.222;2024-01-11T07:41:59;16.20;1.00
12413;DHT22;13877;18.896;-99.222;2024-01-11T07:44:26;16.40;1.00
12413;DHT22;13877;18.896;-99.222;2024-01-11T07:46:53;16.20;1.00
12413;DHT22;13877;18.896;-99.222;2024-01-11T07:49:20;16.30;1.00
12413;DHT22;13877;18.896;-99.222;2024-01-11T07:51:48;16.30;1.00
12413;DHT22;13877;18.896;-99.222;2024-01-11T07:54:15;16.20;1.00
12413;DHT22;13877;18.896;-99.222;2024-01-11T07:56:42;16.20;1.00
12413;DHT22;13877;18.896;-99.222;2024-01-11T07:59:10;16.20;1.00
12413;DHT22;13877;18.896;-99.222;2024-01-11T08:01:41;16.10;1.00
12413;DHT22;13877;18.896;-99.222;2024-01-11T08:04:08;16.10;1.00
12413;DHT22;13877;18.896;-99.222;2024-01-11T08:06:36;16.10;1.00
12413;DHT22;13877;18.896;-99.222;2024-01-11T08:09:03;16.10;1.00
12413;DHT22;13877;18.896;-99.222;2024-01-11T08:11:31;16.10;1.00
12413;DHT22;13877;18.896;-99.222;2024-01-11T08:13:59;16.10;1.00
12413;DHT22;13877;18.896;-99.222;2024-01-11T08:16:27;16.20;1.00
12413;DHT22;13877;18.896;-99.222;2024-01-11T08:18:54;16.20;1.00
12413;DHT22;13877;18.896;-99.222;2024-01-11T08:21:22;16.20;1.00
12413;DHT22;13877;18.896;-99.222;2024-01-11T08:23:49;16.20;1.00
12413;DHT22;13877;18.896;-99.222;2024-01-11T08:26:16;16.10;1.00
12413;DHT22;13877;18.896;-99.222;2024-01-11T08:28:46;16.00;1.00
12413;DHT22;13877;18.896;-99.222;2024-01-11T08:31:22;15.90;1.00
12413;DHT22;13877;18.896;-99.222;2024-01-11T08:33:49;15.90;1.00
12413;DHT22;13877;18.896;-99.222;2024-01-11T08:36:17;16.00;1.00
12413;DHT22;13877;18.896;-99.222;2024-01-11T08:38:44;15.90;1.00
12413;DHT22;13877;18.896;-99.222;2024-01-11T08:41:12;15.90;1.00
12413;DHT22;13877;18.896;-99.222;2024-01-11T08:43:39;15.90;1.00
12413;DHT22;13877;18.896;-99.222;2024-01-11T08:46:06;16.00;1.00
12413;DHT22;13877;18.896;-99.222;2024-01-11T08:48:33;16.00;1.00
12413;DHT22;13877;18.896;-99.222;2024-01-11T08:51:01;15.80;1.00
12413;DHT22;13877;18.896;-99.222;2024-01-11T08:53:28;15.70;1.00
12413;DHT22;13877;18.896;-99.222;2024-01-11T08:55:55;15.70;1.00
12413;DHT22;13877;18.896;-99.222;2024-01-11T08:58:22;15.70;1.00
12413;DHT22;13877;18.896;-99.222;2024-01-11T09:00:50;15.70;1.00
12413;DHT22;13877;18.896;-99.222;2024-01-11T09:03:17;15.70;1.00
12413;DHT22;13877;18.896;-99.222;2024-01-11T09:05:44;15.80;1.00
12413;DHT22;13877;18.896;-99.222;2024-01-11T09:08:11;15.80;1.00
12413;DHT22;13877;18.896;-99.222;2024-01-11T09:10:38;15.80;1.00
12413;DHT22;13877;18.896;-99.222;2024-01-11T09:13:08;15.90;1.00
12413;DHT22;13877;18.896;-99.222;2024-01-11T09:15:35;15.90;1.00
12413;DHT22;13877;18.896;-99.222;2024-01-11T09:18:02;15.90;1.00
12413;DHT22;13877;18.896;-99.222;2024-01-11T09:20:30;15.80;1.00
12413;DHT22;13877;18.896;-99.222;2024-01-11T09:22:57;15.80;1.00
12413;DHT22;13877;18.896;-99.222;2024-01-11T09:25:24;15.80;1.00
12413;DHT22;13877;18.896;-99.222;2024-01-11T09:27:51;15.80;1.00
12413;DHT22;13877;18.896;-99.222;2024-01-11T09:30:19;15.80;1.00
12413;DHT22;13877;18.896;-99.222;2024-01-11T09:32:46;15.80;1.00
12413;DHT22;13877;18.896;-99.222;2024-01-11T09:35:14;15.80;1.00
12413;DHT22;13877;18.896;-99.222;2024-01-11T09:37:42;15.80;1.00
12413;DHT22;13877;18.896;-99.222;2024-01-11T09:40:12;15.80;1.00
12413;DHT22;13877;18.896;-99.222;2024-01-11T09:42:40;15.80;1.00
12413;DHT22;13877;18.896;-99.222;2024-01-11T09:45:15;15.80;1.00
12413;DHT22;13877;18.896;-99.222;2024-01-11T09:47:45;15.70;1.00
12413;DHT22;13877;18.896;-99.222;2024-01-11T09:50:15;15.60;1.00
12413;DHT22;13877;18.896;-99.222;2024-01-11T09:52:48;15.50;1.00
12413;DHT22;13877;18.896;-99.222;2024-01-11T09:55:19;15.40;1.00
12413;DHT22;13877;18.896;-99.222;2024-01-11T09:57:48;15.30;1.00
12413;DHT22;13877;18.896;-99.222;2024-01-11T10:00:21;15.20;1.00
12413;DHT22;13877;18.896;-99.222;2024-01-11T10:02:49;15.30;1.00
12413;DHT22;13877;18.896;-99.222;2024-01-11T10:05:18;15.40;1.00
12413;DHT22;13877;18.896;-99.222;2024-01-11T10:07:45;15.30;1.00
12413;DHT22;13877;18.896;-99.222;2024-01-11T10:10:13;15.40;1.00
12413;DHT22;13877;18.896;-99.222;2024-01-11T10:12:44;15.50;1.00
12413;DHT22;13877;18.896;-99.222;2024-01-11T10:15:12;15.60;1.00
12413;DHT22;13877;18.896;-99.222;2024-01-11T10:17:44;15.60;1.00
12413;DHT22;13877;18.896;-99.222;2024-01-11T10:20:13;15.50;1.00
12413;DHT22;13877;18.896;-99.222;2024-01-11T10:22:50;15.30;1.00
12413;DHT22;13877;18.896;-99.222;2024-01-11T10:25:19;15.10;1.00
12413;DHT22;13877;18.896;-99.222;2024-01-11T10:27:47;15.00;1.00
12413;DHT22;13877;18.896;-99.222;2024-01-11T10:30:16;15.00;1.00
12413;DHT22;13877;18.896;-99.222;2024-01-11T10:32:47;15.00;1.00
12413;DHT22;13877;18.896;-99.222;2024-01-11T10:35:15;15.00;1.00
12413;DHT22;13877;18.896;-99.222;2024-01-11T10:37:44;15.00;1.00
12413;DHT22;13877;18.896;-99.222;2024-01-11T10:40:13;15.10;1.00
12413;DHT22;13877;18.896;-99.222;2024-01-11T10:42:44;15.20;1.00
12413;DHT22;13877;18.896;-99.222;2024-01-11T10:45:16;15.30;1.00
12413;DHT22;13877;18.896;-99.222;2024-01-11T10:48:17;15.20;1.00
12413;DHT22;13877;18.896;-99.222;2024-01-11T10:50:46;15.20;1.00
12413;DHT22;13877;18.896;-99.222;2024-01-11T10:53:33;15.20;1.00
12413;DHT22;13877;18.896;-99.222;2024-01-11T10:56:04;15.30;1.00
12413;DHT22;13877;18.896;-99.222;2024-01-11T10:58:35;15.40;1.00
12413;DHT22;13877;18.896;-99.222;2024-01-11T11:01:03;15.40;1.00
12413;DHT22;13877;18.896;-99.222;2024-01-11T11:03:35;15.30;1.00
12413;DHT22;13877;18.896;-99.222;2024-01-11T11:06:03;15.20;1.00
12413;DHT22;13877;18.896;-99.222;2024-01-11T11:08:32;15.20;1.00
12413;DHT22;13877;18.896;-99.222;2024-01-11T11:11:01;15.20;1.00
12413;DHT22;13877;18.896;-99.222;2024-01-11T11:13:33;15.20;1.00
12413;DHT22;13877;18.896;-99.222;2024-01-11T11:16:04;15.30;1.00
12413;DHT22;13877;18.896;-99.222;2024-01-11T11:18:32;15.40;1.00
12413;DHT22;13877;18.896;-99.222;2024-01-11T11:21:02;15.40;1.00
12413;DHT22;13877;18.896;-99.222;2024-01-11T11:23:33;15.30;1.00
12413;DHT22;13877;18.896;-99.222;2024-01-11T11:26:00;15.40;1.00
12413;DHT22;13877;18.896;-99.222;2024-01-11T11:28:27;15.40;1.00
12413;DHT22;13877;18.896;-99.222;2024-01-11T11:30:54;15.30;1.00
12413;DHT22;13877;18.896;-99.222;2024-01-11T11:33:25;15.30;1.00
12413;DHT22;13877;18.896;-99.222;2024-01-11T11:35:54;15.30;1.00
12413;DHT22;13877;18.896;-99.222;2024-01-11T11:38:23;15.40;1.00
12413;DHT22;13877;18.896;-99.222;2024-01-11T11:40:53;15.40;1.00
12413;DHT22;13877;18.896;-99.222;2024-01-11T11:43:22;15.40;1.00
12413;DHT22;13877;18.896;-99.222;2024-01-11T11:45:52;15.30;1.00
12413;DHT22;13877;18.896;-99.222;2024-01-11T11:53:34;15.30;1.00
12413;DHT22;13877;18.896;-99.222;2024-01-11T11:56:02;15.30;1.00
12413;DHT22;13877;18.896;-99.222;2024-01-11T11:58:31;15.30;1.00
12413;DHT22;13877;18.896;-99.222;2024-01-11T12:01:00;15.30;1.00
12413;DHT22;13877;18.896;-99.222;2024-01-11T12:03:32;15.30;1.00
12413;DHT22;13877;18.896;-99.222;2024-01-11T12:06:00;15.20;1.00
12413;DHT22;13877;18.896;-99.222;2024-01-11T12:08:27;15.20;1.00
12413;DHT22;13877;18.896;-99.222;2024-01-11T12:10:55;15.20;1.00
12413;DHT22;13877;18.896;-99.222;2024-01-11T12:13:22;15.20;1.00
12413;DHT22;13877;18.896;-99.222;2024-01-11T12:15:50;15.20;1.00
12413;DHT22;13877;18.896;-99.222;2024-01-11T12:18:17;15.20;1.00
12413;DHT22;13877;18.896;-99.222;2024-01-11T12:20:46;15.20;1.00
12413;DHT22;13877;18.896;-99.222;2024-01-11T12:23:13;15.20;1.00
12413;DHT22;13877;18.896;-99.222;2024-01-11T12:25:44;15.10;1.00
12413;DHT22;13877;18.896;-99.222;2024-01-11T12:28:11;15.00;1.00
12413;DHT22;13877;18.896;-99.222;2024-01-11T12:30:39;15.00;1.00
12413;DHT22;13877;18.896;-99.222;2024-01-11T12:33:06;15.00;1.00
12413;DHT22;13877;18.896;-99.222;2024-01-11T12:35:34;15.10;1.00
12413;DHT22;13877;18.896;-99.222;2024-01-11T12:38:05;15.10;1.00
12413;DHT22;13877;18.896;-99.222;2024-01-11T12:40:34;15.10;1.00
12413;DHT22;13877;18.896;-99.222;2024-01-11T12:43:07;15.20;1.00
12413;DHT22;13877;18.896;-99.222;2024-01-11T12:45:35;15.10;1.00
12413;DHT22;13877;18.896;-99.222;2024-01-11T12:48:06;15.10;1.00
12413;DHT22;13877;18.896;-99.222;2024-01-11T12:50:33;15.00;1.00
12413;DHT22;13877;18.896;-99.222;2024-01-11T12:55:32;14.90;1.00
12413;DHT22;13877;18.896;-99.222;2024-01-11T12:58:24;14.90;1.00
12413;DHT22;13877;18.896;-99.222;2024-01-11T13:00:52;15.00;1.00
12413;DHT22;13877;18.896;-99.222;2024-01-11T13:03:22;14.90;1.00
12413;DHT22;13877;18.896;-99.222;2024-01-11T13:05:51;14.90;1.00
12413;DHT22;13877;18.896;-99.222;2024-01-11T13:08:18;14.80;1.00
12413;DHT22;13877;18.896;-99.222;2024-01-11T13:10:46;14.80;1.00
12413;DHT22;13877;18.896;-99.222;2024-01-11T13:13:17;14.90;1.00
12413;DHT22;13877;18.896;-99.222;2024-01-11T13:15:44;15.00;1.00
12413;DHT22;13877;18.896;-99.222;2024-01-11T13:18:14;15.20;1.00
12413;DHT22;13877;18.896;-99.222;2024-01-11T13:20:41;15.20;1.00
12413;DHT22;13877;18.896;-99.222;2024-01-11T13:23:19;15.30;1.00
12413;DHT22;13877;18.896;-99.222;2024-01-11T13:25:49;15.30;1.00
12413;DHT22;13877;18.896;-99.222;2024-01-11T13:28:17;15.20;1.00
12413;DHT22;13877;18.896;-99.222;2024-01-11T13:30:46;15.30;1.00
12413;DHT22;13877;18.896;-99.222;2024-01-11T13:33:15;15.20;1.00
12413;DHT22;13877;18.896;-99.222;2024-01-11T13:35:44;15.10;1.00
12413;DHT22;13877;18.896;-99.222;2024-01-11T13:38:11;15.20;1.00
12413;DHT22;13877;18.896;-99.222;2024-01-11T13:40:39;15.40;1.00
12413;DHT22;13877;18.896;-99.222;2024-01-11T13:43:07;15.50;1.00
12413;DHT22;13877;18.896;-99.222;2024-01-11T13:45:35;15.60;1.00
12413;DHT22;13877;18.896;-99.222;2024-01-11T13:48:05;15.80;1.00
12413;DHT22;13877;18.896;-99.222;2024-01-11T13:50:34;16.00;1.00
12413;DHT22;13877;18.896;-99.222;2024-01-11T13:53:01;16.00;1.00
12413;DHT22;13877;18.896;-99.222;2024-01-11T13:55:29;16.10;1.00
12413;DHT22;13877;18.896;-99.222;2024-01-11T13:58:04;16.10;1.00
12413;DHT22;13877;18.896;-99.222;2024-01-11T14:00:32;16.20;1.00
12413;DHT22;13877;18.896;-99.222;2024-01-11T14:02:59;16.30;1.00
12413;DHT22;13877;18.896;-99.222;2024-01-11T14:05:26;16.40;1.00
12413;DHT22;13877;18.896;-99.222;2024-01-11T14:07:53;16.50;1.00
12413;DHT22;13877;18.896;-99.222;2024-01-11T14:10:25;16.50;1.00
12413;DHT22;13877;18.896;-99.222;2024-01-11T14:12:52;16.60;1.00
12413;DHT22;13877;18.896;-99.222;2024-01-11T14:15:20;16.70;1.00
12413;DHT22;13877;18.896;-99.222;2024-01-11T14:17:47;16.80;1.00
12413;DHT22;13877;18.896;-99.222;2024-01-11T14:20:15;16.90;1.00
12413;DHT22;13877;18.896;-99.222;2024-01-11T14:22:43;17.20;1.00
12413;DHT22;13877;18.896;-99.222;2024-01-11T14:25:17;17.20;1.00
12413;DHT22;13877;18.896;-99.222;2024-01-11T14:27:47;17.00;1.00
12413;DHT22;13877;18.896;-99.222;2024-01-11T14:30:14;17.10;1.00
12413;DHT22;13877;18.896;-99.222;2024-01-11T14:32:45;17.30;1.00
12413;DHT22;13877;18.896;-99.222;2024-01-11T14:35:12;17.50;1.00
12413;DHT22;13877;18.896;-99.222;2024-01-11T14:37:40;17.70;1.00
12413;DHT22;13877;18.896;-99.222;2024-01-11T14:40:09;18.00;1.00
12413;DHT22;13877;18.896;-99.222;2024-01-11T14:42:40;18.10;1.00
12413;DHT22;13877;18.896;-99.222;2024-01-11T14:45:08;18.40;1.00
12413;DHT22;13877;18.896;-99.222;2024-01-11T14:47:35;18.60;1.00
12413;DHT22;13877;18.896;-99.222;2024-01-11T14:50:04;18.80;1.00
12413;DHT22;13877;18.896;-99.222;2024-01-11T14:52:31;19.00;1.00
12413;DHT22;13877;18.896;-99.222;2024-01-11T14:54:58;19.10;1.00
12413;DHT22;13877;18.896;-99.222;2024-01-11T14:57:25;19.00;1.00
12413;DHT22;13877;18.896;-99.222;2024-01-11T14:59:53;18.90;1.00
12413;DHT22;13877;18.896;-99.222;2024-01-11T15:02:21;19.00;1.00
12413;DHT22;13877;18.896;-99.222;2024-01-11T15:04:48;19.20;1.00
12413;DHT22;13877;18.896;-99.222;2024-01-11T15:07:15;19.50;1.00
12413;DHT22;13877;18.896;-99.222;2024-01-11T15:09:42;19.80;1.00
12413;DHT22;13877;18.896;-99.222;2024-01-11T15:12:10;19.80;1.00
12413;DHT22;13877;18.896;-99.222;2024-01-11T15:14:39;19.70;1.00
12413;DHT22;13877;18.896;-99.222;2024-01-11T15:17:12;19.70;1.00
12413;DHT22;13877;18.896;-99.222;2024-01-11T15:19:39;19.90;1.00
12413;DHT22;13877;18.896;-99.222;2024-01-11T15:22:06;20.30;1.00
12413;DHT22;13877;18.896;-99.222;2024-01-11T15:24:35;20.40;1.00
12413;DHT22;13877;18.896;-99.222;2024-01-11T15:27:03;20.50;1.00
12413;DHT22;13877;18.896;-99.222;2024-01-11T15:29:30;21.00;1.00
12413;DHT22;13877;18.896;-99.222;2024-01-11T15:31:57;21.30;1.00
12413;DHT22;13877;18.896;-99.222;2024-01-11T15:34:26;21.50;1.00
12413;DHT22;13877;18.896;-99.222;2024-01-11T15:36:54;21.50;1.00
12413;DHT22;13877;18.896;-99.222;2024-01-11T15:39:24;21.20;1.00
12413;DHT22;13877;18.896;-99.222;2024-01-11T15:41:51;22.20;1.00
12413;DHT22;13877;18.896;-99.222;2024-01-11T15:44:19;22.40;1.00
12413;DHT22;13877;18.896;-99.222;2024-01-11T15:46:46;23.00;1.00
12413;DHT22;13877;18.896;-99.222;2024-01-11T15:49:14;23.30;1.00
12413;DHT22;13877;18.896;-99.222;2024-01-11T15:51:43;23.50;1.00
12413;DHT22;13877;18.896;-99.222;2024-01-11T15:54:10;23.60;1.00
12413;DHT22;13877;18.896;-99.222;2024-01-11T15:56:38;23.80;1.00
12413;DHT22;13877;18.896;-99.222;2024-01-11T15:59:06;23.40;1.00
12413;DHT22;13877;18.896;-99.222;2024-01-11T16:01:34;23.20;1.00
12413;DHT22;13877;18.896;-99.222;2024-01-11T16:04:04;22.70;1.00
12413;DHT22;13877;18.896;-99.222;2024-01-11T16:06:32;23.40;1.00
12413;DHT22;13877;18.896;-99.222;2024-01-11T16:09:00;23.10;1.00
12413;DHT22;13877;18.896;-99.222;2024-01-11T16:11:27;23.70;1.00
12413;DHT22;13877;18.896;-99.222;2024-01-11T16:13:56;23.70;1.00
12413;DHT22;13877;18.896;-99.222;2024-01-11T16:16:23;23.40;1.00
12413;DHT22;13877;18.896;-99.222;2024-01-11T16:18:51;23.10;1.00
12413;DHT22;13877;18.896;-99.222;2024-01-11T16:21:18;22.80;1.00
12413;DHT22;13877;18.896;-99.222;2024-01-11T16:23:45;23.40;1.00
12413;DHT22;13877;18.896;-99.222;2024-01-11T16:26:12;23.90;1.00
12413;DHT22;13877;18.896;-99.222;2024-01-11T16:28:40;23.80;1.00
12413;DHT22;13877;18.896;-99.222;2024-01-11T16:31:09;23.50;1.00
12413;DHT22;13877;18.896;-99.222;2024-01-11T16:33:36;24.20;1.00
12413;DHT22;13877;18.896;-99.222;2024-01-11T16:36:06;23.40;1.00
12413;DHT22;13877;18.896;-99.222;2024-01-11T16:38:40;23.60;1.00
12413;DHT22;13877;18.896;-99.222;2024-01-11T16:41:07;24.00;1.00
12413;DHT22;13877;18.896;-99.222;2024-01-11T16:43:36;24.20;1.00
12413;DHT22;13877;18.896;-99.222;2024-01-11T16:46:03;23.90;1.00
12413;DHT22;13877;18.896;-99.222;2024-01-11T16:48:30;24.10;1.00